Airfield :
LOGIN :

Register | Disclaimer

   EN    FR    IT 

 










Legend :    VFR   Marginal VFR   IFR   Intensive IFR   Very Intensive IFR
Visi :
Ceiling :
>= 8 km
>= 3000ft
5 to 8 km
1000 to 3000 ft
1500m to 5 km
500 to 1000 ft
800 to 1500m
200 to 500 ft
< 800m
< 200 ft
Symbols :   Thunderstorms  Fog  Heavy snow  Heavy precipitations  Wind > 20 kt
SIGMETs :     Misc.  Thunderstorms  Icing  Turbulence  Mountain Waves  Volcanic Ashes







- Airport Elevation : 545 ft
- IATA code : PZY


LZPP - Piešťany

CURRENT METAR :
  • 250430Z 35007KT 290V020 4500 TSRA FEW035CB BKN050 BKN070 18/17 Q1022

EXPIRED METARs :
  • 250413Z 20005KT 150V270 1500 +TSRA FEW030CB BKN050 18/18 Q1022
  • 250330Z AUTO 05006KT 9999 RA OVC110/// 18/18 Q1022
  • 250300Z AUTO VRB03KT 9000 RA FEW075/// BKN087/// OVC100/// 18/18 Q1022
  • 250230Z AUTO 20012KT 1200 R01/P2000N +RA FEW013/// SCT024/// BKN036/// 18/18 Q1022
  • 250200Z AUTO 17009G24KT 130V210 9999 FEW012/// SCT021/// BKN030/// 20/18 Q1022

Expired Forecast.
No reported NOTAMs for that airfield.



MET'MAP, your aeronautical weather chart ! - Copyright ORBIFLY December 2007 - Disclaimer

ORBIFLY MET'MAP TEAM :

Programming & Development : Alexandra Zaïnal
Concept & Development : Baudouin d'Aumeries
Co-Development & Prog : Marc-Olivier Méhu
Technical & hardware support : Manuel Goepfert

Contact : metmap@orbifly.com




SOURCES & CREDITS :

   NOAA